sensor_id;sensor_type;location;lat;lon;timestamp;temperature;humidity
26721;HTU21D;15950;51.112;6.966;2022-12-07T00:02:09;5.74;92.69
26721;HTU21D;15950;51.112;6.966;2022-12-07T00:05:09;5.73;92.69
26721;HTU21D;15950;51.112;6.966;2022-12-07T00:08:09;5.50;93.27
26721;HTU21D;15950;51.112;6.966;2022-12-07T00:11:14;5.64;93.09
26721;HTU21D;15950;51.112;6.966;2022-12-07T00:14:12;5.82;92.44
26721;HTU21D;15950;51.112;6.966;2022-12-07T00:17:09;5.69;92.87
26721;HTU21D;15950;51.112;6.966;2022-12-07T00:20:10;5.57;92.97
26721;HTU21D;15950;51.112;6.966;2022-12-07T00:23:09;5.51;92.95
26721;HTU21D;15950;51.112;6.966;2022-12-07T00:29:17;5.60;93.54
26721;HTU21D;15950;51.112;6.966;2022-12-07T00:32:09;5.78;92.82
26721;HTU21D;15950;51.112;6.966;2022-12-07T00:35:09;5.54;93.43
26721;HTU21D;15950;51.112;6.966;2022-12-07T00:38:09;5.73;92.86
26721;HTU21D;15950;51.112;6.966;2022-12-07T00:41:18;5.63;92.69
26721;HTU21D;15950;51.112;6.966;2022-12-07T00:44:09;5.84;92.60
26721;HTU21D;15950;51.112;6.966;2022-12-07T00:47:09;5.83;92.45
26721;HTU21D;15950;51.112;6.966;2022-12-07T00:50:09;5.73;92.84
26721;HTU21D;15950;51.112;6.966;2022-12-07T00:53:09;5.86;92.11
26721;HTU21D;15950;51.112;6.966;2022-12-07T00:56:14;5.90;92.24
26721;HTU21D;15950;51.112;6.966;2022-12-07T00:59:12;5.86;92.01
26721;HTU21D;15950;51.112;6.966;2022-12-07T01:02:09;5.55;92.81
26721;HTU21D;15950;51.112;6.966;2022-12-07T01:05:09;5.62;92.85
26721;HTU21D;15950;51.112;6.966;2022-12-07T01:08:09;5.39;93.49
26721;HTU21D;15950;51.112;6.966;2022-12-07T01:11:15;5.73;93.23
26721;HTU21D;15950;51.112;6.966;2022-12-07T01:14:09;5.73;92.95
26721;HTU21D;15950;51.112;6.966;2022-12-07T01:17:09;5.60;93.20
26721;HTU21D;15950;51.112;6.966;2022-12-07T01:20:10;5.72;92.82
26721;HTU21D;15950;51.112;6.966;2022-12-07T01:23:09;5.68;92.75
26721;HTU21D;15950;51.112;6.966;2022-12-07T01:26:12;5.67;92.57
26721;HTU21D;15950;51.112;6.966;2022-12-07T01:29:09;5.70;92.53
26721;HTU21D;15950;51.112;6.966;2022-12-07T01:32:10;5.74;92.40
26721;HTU21D;15950;51.112;6.966;2022-12-07T01:35:09;5.58;92.74
26721;HTU21D;15950;51.112;6.966;2022-12-07T01:38:09;5.74;92.84
26721;HTU21D;15950;51.112;6.966;2022-12-07T01:41:10;5.40;93.64
26721;HTU21D;15950;51.112;6.966;2022-12-07T01:44:15;5.57;93.66
26721;HTU21D;15950;51.112;6.966;2022-12-07T01:47:09;5.67;93.11
26721;HTU21D;15950;51.112;6.966;2022-12-07T01:50:10;5.38;93.23
26721;HTU21D;15950;51.112;6.966;2022-12-07T01:53:10;5.81;92.66
26721;HTU21D;15950;51.112;6.966;2022-12-07T01:56:12;5.67;92.41
26721;HTU21D;15950;51.112;6.966;2022-12-07T01:59:09;5.56;92.61
26721;HTU21D;15950;51.112;6.966;2022-12-07T02:02:17;5.94;92.23
26721;HTU21D;15950;51.112;6.966;2022-12-07T02:05:09;5.84;91.76
26721;HTU21D;15950;51.112;6.966;2022-12-07T02:08:11;5.85;92.21
26721;HTU21D;15950;51.112;6.966;2022-12-07T02:11:09;5.86;92.20
26721;HTU21D;15950;51.112;6.966;2022-12-07T02:14:09;5.76;92.26
26721;HTU21D;15950;51.112;6.966;2022-12-07T02:20:21;5.75;92.96
26721;HTU21D;15950;51.112;6.966;2022-12-07T02:32:21;5.88;92.21
26721;HTU21D;15950;51.112;6.966;2022-12-07T02:38:16;5.89;91.78
26721;HTU21D;15950;51.112;6.966;2022-12-07T02:41:10;5.66;92.40
26721;HTU21D;15950;51.112;6.966;2022-12-07T02:44:13;5.92;92.00
26721;HTU21D;15950;51.112;6.966;2022-12-07T02:47:12;5.89;91.78
26721;HTU21D;15950;51.112;6.966;2022-12-07T02:50:10;5.63;92.49
26721;HTU21D;15950;51.112;6.966;2022-12-07T03:11:14;5.52;93.09
26721;HTU21D;15950;51.112;6.966;2022-12-07T03:14:18;5.77;92.65
26721;HTU21D;15950;51.112;6.966;2022-12-07T03:17:16;5.72;92.46
26721;HTU21D;15950;51.112;6.966;2022-12-07T03:20:11;5.52;93.02
26721;HTU21D;15950;51.112;6.966;2022-12-07T03:23:10;5.69;92.67
26721;HTU21D;15950;51.112;6.966;2022-12-07T03:26:12;5.46;92.95
26721;HTU21D;15950;51.112;6.966;2022-12-07T03:29:17;5.64;93.14
26721;HTU21D;15950;51.112;6.966;2022-12-07T03:32:16;5.43;93.04
26721;HTU21D;15950;51.112;6.966;2022-12-07T03:41:17;5.68;92.63
26721;HTU21D;15950;51.112;6.966;2022-12-07T03:44:09;5.77;92.28
26721;HTU21D;15950;51.112;6.966;2022-12-07T03:50:15;5.89;91.91
26721;HTU21D;15950;51.112;6.966;2022-12-07T03:53:15;5.79;92.12
26721;HTU21D;15950;51.112;6.966;2022-12-07T03:56:10;5.71;92.10
26721;HTU21D;15950;51.112;6.966;2022-12-07T03:59:11;5.66;91.98
26721;HTU21D;15950;51.112;6.966;2022-12-07T04:02:11;5.71;92.14
26721;HTU21D;15950;51.112;6.966;2022-12-07T04:05:10;5.74;92.62
26721;HTU21D;15950;51.112;6.966;2022-12-07T04:08:10;5.73;92.26
26721;HTU21D;15950;51.112;6.966;2022-12-07T04:11:09;5.72;91.95
26721;HTU21D;15950;51.112;6.966;2022-12-07T04:14:09;5.45;92.31
26721;HTU21D;15950;51.112;6.966;2022-12-07T04:17:09;5.68;92.30
26721;HTU21D;15950;51.112;6.966;2022-12-07T04:20:10;5.53;92.52
26721;HTU21D;15950;51.112;6.966;2022-12-07T04:23:09;5.67;92.10
26721;HTU21D;15950;51.112;6.966;2022-12-07T04:26:09;5.60;92.21
26721;HTU21D;15950;51.112;6.966;2022-12-07T04:29:10;5.32;93.25
26721;HTU21D;15950;51.112;6.966;2022-12-07T04:32:09;5.35;93.25
26721;HTU21D;15950;51.112;6.966;2022-12-07T04:35:09;5.29;93.31
26721;HTU21D;15950;51.112;6.966;2022-12-07T04:38:09;5.28;93.29
26721;HTU21D;15950;51.112;6.966;2022-12-07T04:41:09;5.31;93.17
26721;HTU21D;15950;51.112;6.966;2022-12-07T04:44:09;5.44;93.18
26721;HTU21D;15950;51.112;6.966;2022-12-07T04:47:09;5.46;92.84
26721;HTU21D;15950;51.112;6.966;2022-12-07T04:50:10;5.32;93.08
26721;HTU21D;15950;51.112;6.966;2022-12-07T04:53:09;5.63;92.37
26721;HTU21D;15950;51.112;6.966;2022-12-07T04:56:09;5.46;92.21
26721;HTU21D;15950;51.112;6.966;2022-12-07T04:59:11;5.11;92.98
26721;HTU21D;15950;51.112;6.966;2022-12-07T05:02:09;5.41;92.72
26721;HTU21D;15950;51.112;6.966;2022-12-07T05:05:09;5.35;92.57
26721;HTU21D;15950;51.112;6.966;2022-12-07T05:08:09;5.56;92.21
26721;HTU21D;15950;51.112;6.966;2022-12-07T05:11:10;5.42;92.48
26721;HTU21D;15950;51.112;6.966;2022-12-07T05:17:09;5.14;93.48
26721;HTU21D;15950;51.112;6.966;2022-12-07T05:20:10;5.02;93.50
26721;HTU21D;15950;51.112;6.966;2022-12-07T05:23:10;5.34;93.23
26721;HTU21D;15950;51.112;6.966;2022-12-07T05:26:09;5.37;92.88
26721;HTU21D;15950;51.112;6.966;2022-12-07T05:29:15;5.06;93.52
26721;HTU21D;15950;51.112;6.966;2022-12-07T05:32:09;5.23;93.51
26721;HTU21D;15950;51.112;6.966;2022-12-07T05:35:09;5.09;93.62
26721;HTU21D;15950;51.112;6.966;2022-12-07T05:38:09;5.32;93.27
26721;HTU21D;15950;51.112;6.966;2022-12-07T05:41:13;5.48;92.83
26721;HTU21D;15950;51.112;6.966;2022-12-07T05:44:09;5.39;92.14
26721;HTU21D;15950;51.112;6.966;2022-12-07T05:47:10;5.19;92.93
26721;HTU21D;15950;51.112;6.966;2022-12-07T05:50:09;5.29;93.04
26721;HTU21D;15950;51.112;6.966;2022-12-07T05:53:09;5.10;93.08
26721;HTU21D;15950;51.112;6.966;2022-12-07T05:56:09;5.51;92.21
26721;HTU21D;15950;51.112;6.966;2022-12-07T05:59:09;5.16;92.26
26721;HTU21D;15950;51.112;6.966;2022-12-07T06:02:12;5.05;92.34
26721;HTU21D;15950;51.112;6.966;2022-12-07T06:05:09;5.36;92.11
26721;HTU21D;15950;51.112;6.966;2022-12-07T06:08:09;5.29;91.54
26721;HTU21D;15950;51.112;6.966;2022-12-07T06:11:09;5.32;91.54
26721;HTU21D;15950;51.112;6.966;2022-12-07T06:14:09;5.31;91.26
26721;HTU21D;15950;51.112;6.966;2022-12-07T06:17:10;5.59;90.98
26721;HTU21D;15950;51.112;6.966;2022-12-07T06:20:09;5.65;90.33
26721;HTU21D;15950;51.112;6.966;2022-12-07T06:23:09;5.50;90.63
26721;HTU21D;15950;51.112;6.966;2022-12-07T06:26:09;5.50;90.31
26721;HTU21D;15950;51.112;6.966;2022-12-07T06:29:10;5.60;90.47
26721;HTU21D;15950;51.112;6.966;2022-12-07T06:32:09;5.60;90.47
26721;HTU21D;15950;51.112;6.966;2022-12-07T06:35:09;5.63;90.02
26721;HTU21D;15950;51.112;6.966;2022-12-07T06:38:09;5.36;90.53
26721;HTU21D;15950;51.112;6.966;2022-12-07T06:41:09;5.48;90.72
26721;HTU21D;15950;51.112;6.966;2022-12-07T06:44:09;5.17;90.96
26721;HTU21D;15950;51.112;6.966;2022-12-07T06:47:09;5.32;91.44
26721;HTU21D;15950;51.112;6.966;2022-12-07T06:50:09;5.45;90.63
26721;HTU21D;15950;51.112;6.966;2022-12-07T06:53:09;5.68;89.91
26721;HTU21D;15950;51.112;6.966;2022-12-07T06:56:09;5.64;89.57
26721;HTU21D;15950;51.112;6.966;2022-12-07T06:59:09;5.69;89.54
26721;HTU21D;15950;51.112;6.966;2022-12-07T07:02:09;5.44;89.58
26721;HTU21D;15950;51.112;6.966;2022-12-07T07:05:09;5.61;90.09
26721;HTU21D;15950;51.112;6.966;2022-12-07T07:08:09;5.38;90.34
26721;HTU21D;15950;51.112;6.966;2022-12-07T07:11:09;5.35;90.55
26721;HTU21D;15950;51.112;6.966;2022-12-07T07:14:09;5.55;90.69
26721;HTU21D;15950;51.112;6.966;2022-12-07T07:17:09;5.47;90.33
26721;HTU21D;15950;51.112;6.966;2022-12-07T07:20:10;5.68;90.08
26721;HTU21D;15950;51.112;6.966;2022-12-07T07:23:09;5.71;89.55
26721;HTU21D;15950;51.112;6.966;2022-12-07T07:26:09;5.55;89.87
26721;HTU21D;15950;51.112;6.966;2022-12-07T07:29:09;5.52;89.88
26721;HTU21D;15950;51.112;6.966;2022-12-07T07:32:09;5.74;89.40
26721;HTU21D;15950;51.112;6.966;2022-12-07T07:35:09;5.69;89.51
26721;HTU21D;15950;51.112;6.966;2022-12-07T07:38:09;5.66;89.25
26721;HTU21D;15950;51.112;6.966;2022-12-07T07:41:09;5.86;89.04
26721;HTU21D;15950;51.112;6.966;2022-12-07T07:44:09;5.62;89.27
26721;HTU21D;15950;51.112;6.966;2022-12-07T07:47:09;5.68;89.46
26721;HTU21D;15950;51.112;6.966;2022-12-07T07:50:09;5.91;88.89
26721;HTU21D;15950;51.112;6.966;2022-12-07T07:53:09;5.94;88.53
26721;HTU21D;15950;51.112;6.966;2022-12-07T07:56:09;5.96;88.35
26721;HTU21D;15950;51.112;6.966;2022-12-07T07:59:09;5.90;87.98
26721;HTU21D;15950;51.112;6.966;2022-12-07T08:02:15;5.76;89.02
26721;HTU21D;15950;51.112;6.966;2022-12-07T08:05:10;5.99;88.48
26721;HTU21D;15950;51.112;6.966;2022-12-07T08:08:09;5.86;88.31
26721;HTU21D;15950;51.112;6.966;2022-12-07T08:11:09;5.44;89.29
26721;HTU21D;15950;51.112;6.966;2022-12-07T08:14:10;5.73;89.44
26721;HTU21D;15950;51.112;6.966;2022-12-07T08:17:09;5.86;89.23
26721;HTU21D;15950;51.112;6.966;2022-12-07T08:20:09;5.58;89.50
26721;HTU21D;15950;51.112;6.966;2022-12-07T08:23:10;5.77;89.44
26721;HTU21D;15950;51.112;6.966;2022-12-07T08:26:12;5.71;89.63
26721;HTU21D;15950;51.112;6.966;2022-12-07T08:29:09;5.62;89.86
26721;HTU21D;15950;51.112;6.966;2022-12-07T08:32:09;5.70;89.99
26721;HTU21D;15950;51.112;6.966;2022-12-07T08:35:09;5.43;90.57
26721;HTU21D;15950;51.112;6.966;2022-12-07T08:38:09;5.39;91.05
26721;HTU21D;15950;51.112;6.966;2022-12-07T08:41:09;5.64;90.61
26721;HTU21D;15950;51.112;6.966;2022-12-07T08:44:09;5.53;90.28
26721;HTU21D;15950;51.112;6.966;2022-12-07T08:47:10;5.62;90.13
26721;HTU21D;15950;51.112;6.966;2022-12-07T08:50:10;5.75;90.08
26721;HTU21D;15950;51.112;6.966;2022-12-07T08:53:09;5.78;89.88
26721;HTU21D;15950;51.112;6.966;2022-12-07T08:56:09;5.90;89.66
26721;HTU21D;15950;51.112;6.966;2022-12-07T08:59:09;5.77;89.97
26721;HTU21D;15950;51.112;6.966;2022-12-07T09:02:09;5.52;90.45
26721;HTU21D;15950;51.112;6.966;2022-12-07T09:05:09;5.22;91.81
26721;HTU21D;15950;51.112;6.966;2022-12-07T09:08:09;5.38;91.69
26721;HTU21D;15950;51.112;6.966;2022-12-07T09:11:09;5.50;91.53
26721;HTU21D;15950;51.112;6.966;2022-12-07T09:14:09;5.16;91.82
26721;HTU21D;15950;51.112;6.966;2022-12-07T09:17:11;5.36;91.73
26721;HTU21D;15950;51.112;6.966;2022-12-07T09:20:09;5.38;91.48
26721;HTU21D;15950;51.112;6.966;2022-12-07T09:23:09;5.48;91.95
26721;HTU21D;15950;51.112;6.966;2022-12-07T09:26:09;5.41;91.72
26721;HTU21D;15950;51.112;6.966;2022-12-07T09:29:09;5.58;91.50
26721;HTU21D;15950;51.112;6.966;2022-12-07T09:32:09;5.25;91.60
26721;HTU21D;15950;51.112;6.966;2022-12-07T09:35:09;5.56;91.39
26721;HTU21D;15950;51.112;6.966;2022-12-07T09:38:09;5.35;91.56
26721;HTU21D;15950;51.112;6.966;2022-12-07T09:41:09;5.48;91.67
26721;HTU21D;15950;51.112;6.966;2022-12-07T09:44:17;5.60;91.53
26721;HTU21D;15950;51.112;6.966;2022-12-07T09:47:10;5.55;91.56
26721;HTU21D;15950;51.112;6.966;2022-12-07T09:50:19;5.22;91.80
26721;HTU21D;15950;51.112;6.966;2022-12-07T09:53:15;5.59;91.72
26721;HTU21D;15950;51.112;6.966;2022-12-07T09:56:13;5.60;91.14
26721;HTU21D;15950;51.112;6.966;2022-12-07T09:59:16;5.79;90.89
26721;HTU21D;15950;51.112;6.966;2022-12-07T10:02:22;5.67;91.24
26721;HTU21D;15950;51.112;6.966;2022-12-07T10:05:16;5.55;91.95
26721;HTU21D;15950;51.112;6.966;2022-12-07T10:08:13;5.50;91.98
26721;HTU21D;15950;51.112;6.966;2022-12-07T10:11:10;5.69;91.54
26721;HTU21D;15950;51.112;6.966;2022-12-07T10:14:13;5.59;91.68
26721;HTU21D;15950;51.112;6.966;2022-12-07T10:23:17;5.77;91.55
26721;HTU21D;15950;51.112;6.966;2022-12-07T10:38:15;5.92;91.23
26721;HTU21D;15950;51.112;6.966;2022-12-07T10:41:09;5.79;91.29
26721;HTU21D;15950;51.112;6.966;2022-12-07T10:44:19;5.85;91.02
26721;HTU21D;15950;51.112;6.966;2022-12-07T10:50:17;5.88;90.75
26721;HTU21D;15950;51.112;6.966;2022-12-07T11:06:04;6.02;90.37
26721;HTU21D;15950;51.112;6.966;2022-12-07T11:17:17;6.08;89.98
26721;HTU21D;15950;51.112;6.966;2022-12-07T11:38:15;6.30;88.99
26721;HTU21D;15950;51.112;6.966;2022-12-07T11:41:09;6.22;89.17
26721;HTU21D;15950;51.112;6.966;2022-12-07T11:47:19;6.28;88.89
26721;HTU21D;15950;51.112;6.966;2022-12-07T11:56:17;6.25;88.46
26721;HTU21D;15950;51.112;6.966;2022-12-07T12:02:16;6.32;88.18
26721;HTU21D;15950;51.112;6.966;2022-12-07T12:05:16;6.37;88.00
26721;HTU21D;15950;51.112;6.966;2022-12-07T12:23:15;6.68;86.84
26721;HTU21D;15950;51.112;6.966;2022-12-07T12:42:00;6.55;85.55
26721;HTU21D;15950;51.112;6.966;2022-12-07T12:50:21;6.66;85.06
26721;HTU21D;15950;51.112;6.966;2022-12-07T13:08:16;6.95;84.90
26721;HTU21D;15950;51.112;6.966;2022-12-07T13:20:09;6.84;84.35
26721;HTU21D;15950;51.112;6.966;2022-12-07T13:23:09;6.81;83.93
26721;HTU21D;15950;51.112;6.966;2022-12-07T13:29:20;6.85;83.65
26721;HTU21D;15950;51.112;6.966;2022-12-07T13:32:35;6.89;83.70
26721;HTU21D;15950;51.112;6.966;2022-12-07T13:41:15;6.68;84.84
26721;HTU21D;15950;51.112;6.966;2022-12-07T13:44:12;6.91;84.61
26721;HTU21D;15950;51.112;6.966;2022-12-07T13:53:12;6.76;84.78
26721;HTU21D;15950;51.112;6.966;2022-12-07T13:56:13;6.77;84.66
26721;HTU21D;15950;51.112;6.966;2022-12-07T13:59:16;6.62;84.93
26721;HTU21D;15950;51.112;6.966;2022-12-07T14:05:15;6.92;84.62
26721;HTU21D;15950;51.112;6.966;2022-12-07T14:11:16;6.91;84.91
26721;HTU21D;15950;51.112;6.966;2022-12-07T14:14:19;6.71;84.93
26721;HTU21D;15950;51.112;6.966;2022-12-07T14:17:18;6.61;84.60
26721;HTU21D;15950;51.112;6.966;2022-12-07T14:26:14;6.81;83.61
26721;HTU21D;15950;51.112;6.966;2022-12-07T14:35:11;6.71;84.49
26721;HTU21D;15950;51.112;6.966;2022-12-07T14:38:09;6.68;84.84
26721;HTU21D;15950;51.112;6.966;2022-12-07T14:41:14;6.83;84.92
26721;HTU21D;15950;51.112;6.966;2022-12-07T14:44:11;6.82;84.76
26721;HTU21D;15950;51.112;6.966;2022-12-07T14:47:10;6.65;84.90
26721;HTU21D;15950;51.112;6.966;2022-12-07T14:50:12;6.90;84.83
26721;HTU21D;15950;51.112;6.966;2022-12-07T14:53:17;6.91;84.67
26721;HTU21D;15950;51.112;6.966;2022-12-07T14:56:09;6.86;84.13
26721;HTU21D;15950;51.112;6.966;2022-12-07T14:59:09;6.61;84.52
26721;HTU21D;15950;51.112;6.966;2022-12-07T15:02:11;6.77;84.43
26721;HTU21D;15950;51.112;6.966;2022-12-07T15:05:09;7.09;83.71
26721;HTU21D;15950;51.112;6.966;2022-12-07T15:08:11;7.03;83.26
26721;HTU21D;15950;51.112;6.966;2022-12-07T15:11:14;6.96;83.07
26721;HTU21D;15950;51.112;6.966;2022-12-07T15:14:09;7.09;83.14
26721;HTU21D;15950;51.112;6.966;2022-12-07T15:17:12;7.04;83.23
26721;HTU21D;15950;51.112;6.966;2022-12-07T15:20:12;6.80;83.14
26721;HTU21D;15950;51.112;6.966;2022-12-07T15:23:10;6.77;83.90
26721;HTU21D;15950;51.112;6.966;2022-12-07T15:26:12;6.81;83.65
26721;HTU21D;15950;51.112;6.966;2022-12-07T15:29:10;6.77;83.78
26721;HTU21D;15950;51.112;6.966;2022-12-07T15:32:09;6.90;83.58
26721;HTU21D;15950;51.112;6.966;2022-12-07T15:35:09;6.67;84.39
26721;HTU21D;15950;51.112;6.966;2022-12-07T15:38:09;6.45;84.63
26721;HTU21D;15950;51.112;6.966;2022-12-07T15:41:09;6.33;85.55
26721;HTU21D;15950;51.112;6.966;2022-12-07T15:44:12;6.39;84.84
26721;HTU21D;15950;51.112;6.966;2022-12-07T15:47:09;6.24;85.09
26721;HTU21D;15950;51.112;6.966;2022-12-07T15:50:11;6.36;84.97
26721;HTU21D;15950;51.112;6.966;2022-12-07T15:53:09;6.15;85.15
26721;HTU21D;15950;51.112;6.966;2022-12-07T15:56:09;6.15;85.17
26721;HTU21D;15950;51.112;6.966;2022-12-07T15:59:09;6.22;85.13
26721;HTU21D;15950;51.112;6.966;2022-12-07T16:02:10;6.00;84.87
26721;HTU21D;15950;51.112;6.966;2022-12-07T16:05:09;6.29;84.75
26721;HTU21D;15950;51.112;6.966;2022-12-07T16:08:09;6.04;84.99
26721;HTU21D;15950;51.112;6.966;2022-12-07T16:11:09;6.15;85.23
26721;HTU21D;15950;51.112;6.966;2022-12-07T16:14:09;6.23;84.80
26721;HTU21D;15950;51.112;6.966;2022-12-07T16:17:09;6.02;85.05
26721;HTU21D;15950;51.112;6.966;2022-12-07T16:20:09;6.24;85.24
26721;HTU21D;15950;51.112;6.966;2022-12-07T16:23:09;6.10;84.44
26721;HTU21D;15950;51.112;6.966;2022-12-07T16:26:14;6.06;85.13
26721;HTU21D;15950;51.112;6.966;2022-12-07T16:29:12;6.18;84.81
26721;HTU21D;15950;51.112;6.966;2022-12-07T16:32:09;6.02;85.54
26721;HTU21D;15950;51.112;6.966;2022-12-07T16:35:09;6.10;85.16
26721;HTU21D;15950;51.112;6.966;2022-12-07T16:38:09;6.16;85.12
26721;HTU21D;15950;51.112;6.966;2022-12-07T16:41:09;6.19;84.75
26721;HTU21D;15950;51.112;6.966;2022-12-07T16:44:10;6.05;85.03
26721;HTU21D;15950;51.112;6.966;2022-12-07T16:47:09;6.07;85.41
26721;HTU21D;15950;51.112;6.966;2022-12-07T16:50:09;6.10;85.66
26721;HTU21D;15950;51.112;6.966;2022-12-07T16:53:10;6.12;85.55
26721;HTU21D;15950;51.112;6.966;2022-12-07T16:56:14;5.97;85.89
26721;HTU21D;15950;51.112;6.966;2022-12-07T16:59:09;5.95;85.94
26721;HTU21D;15950;51.112;6.966;2022-12-07T17:02:11;6.14;85.40
26721;HTU21D;15950;51.112;6.966;2022-12-07T17:05:09;6.18;85.70
26721;HTU21D;15950;51.112;6.966;2022-12-07T17:08:10;6.18;85.42
26721;HTU21D;15950;51.112;6.966;2022-12-07T17:11:11;6.26;85.46
26721;HTU21D;15950;51.112;6.966;2022-12-07T17:14:09;6.22;85.61
26721;HTU21D;15950;51.112;6.966;2022-12-07T17:17:09;5.99;86.45
26721;HTU21D;15950;51.112;6.966;2022-12-07T17:20:09;6.03;86.33
26721;HTU21D;15950;51.112;6.966;2022-12-07T17:23:09;6.04;86.73
26721;HTU21D;15950;51.112;6.966;2022-12-07T17:26:17;6.01;86.70
26721;HTU21D;15950;51.112;6.966;2022-12-07T17:29:11;6.07;87.03
26721;HTU21D;15950;51.112;6.966;2022-12-07T17:32:09;5.94;87.32
26721;HTU21D;15950;51.112;6.966;2022-12-07T17:35:09;5.87;87.86
26721;HTU21D;15950;51.112;6.966;2022-12-07T17:38:09;5.76;87.89
26721;HTU21D;15950;51.112;6.966;2022-12-07T17:41:14;6.02;87.88
26721;HTU21D;15950;51.112;6.966;2022-12-07T17:44:11;5.94;87.48
26721;HTU21D;15950;51.112;6.966;2022-12-07T17:47:09;5.84;88.06
26721;HTU21D;15950;51.112;6.966;2022-12-07T17:50:09;5.78;88.06
26721;HTU21D;15950;51.112;6.966;2022-12-07T17:53:10;6.09;87.93
26721;HTU21D;15950;51.112;6.966;2022-12-07T17:56:09;5.92;88.19
26721;HTU21D;15950;51.112;6.966;2022-12-07T17:59:09;5.92;88.22
26721;HTU21D;15950;51.112;6.966;2022-12-07T18:02:09;5.72;88.66
26721;HTU21D;15950;51.112;6.966;2022-12-07T18:05:09;5.87;88.62
26721;HTU21D;15950;51.112;6.966;2022-12-07T18:08:09;6.05;88.28
26721;HTU21D;15950;51.112;6.966;2022-12-07T18:11:09;5.96;88.31
26721;HTU21D;15950;51.112;6.966;2022-12-07T18:14:09;5.97;89.04
26721;HTU21D;15950;51.112;6.966;2022-12-07T18:17:09;5.83;89.60
26721;HTU21D;15950;51.112;6.966;2022-12-07T18:20:09;5.91;89.72
26721;HTU21D;15950;51.112;6.966;2022-12-07T18:23:09;6.15;89.20
26721;HTU21D;15950;51.112;6.966;2022-12-07T18:26:09;5.89;89.60
26721;HTU21D;15950;51.112;6.966;2022-12-07T18:29:13;5.69;90.69
26721;HTU21D;15950;51.112;6.966;2022-12-07T18:32:09;5.92;90.73
26721;HTU21D;15950;51.112;6.966;2022-12-07T18:35:09;5.66;90.91
26721;HTU21D;15950;51.112;6.966;2022-12-07T18:38:09;5.95;90.47
26721;HTU21D;15950;51.112;6.966;2022-12-07T18:41:13;5.92;89.49
26721;HTU21D;15950;51.112;6.966;2022-12-07T18:44:09;5.95;89.47
26721;HTU21D;15950;51.112;6.966;2022-12-07T18:47:09;5.70;90.01
26721;HTU21D;15950;51.112;6.966;2022-12-07T18:50:09;5.73;90.72
26721;HTU21D;15950;51.112;6.966;2022-12-07T18:53:09;5.71;90.92
26721;HTU21D;15950;51.112;6.966;2022-12-07T18:59:12;5.97;90.69
26721;HTU21D;15950;51.112;6.966;2022-12-07T19:02:09;5.88;90.63
26721;HTU21D;15950;51.112;6.966;2022-12-07T19:05:09;6.02;90.50
26721;HTU21D;15950;51.112;6.966;2022-12-07T19:08:09;5.79;91.08
26721;HTU21D;15950;51.112;6.966;2022-12-07T19:14:09;6.03;90.12
26721;HTU21D;15950;51.112;6.966;2022-12-07T19:17:13;6.05;89.78
26721;HTU21D;15950;51.112;6.966;2022-12-07T19:20:12;6.10;89.58
26721;HTU21D;15950;51.112;6.966;2022-12-07T19:23:09;5.89;89.66
26721;HTU21D;15950;51.112;6.966;2022-12-07T19:26:09;6.19;89.30
26721;HTU21D;15950;51.112;6.966;2022-12-07T19:29:09;5.86;90.13
26721;HTU21D;15950;51.112;6.966;2022-12-07T19:32:09;6.06;89.63
26721;HTU21D;15950;51.112;6.966;2022-12-07T19:35:09;5.85;89.68
26721;HTU21D;15950;51.112;6.966;2022-12-07T19:38:09;5.99;89.63
26721;HTU21D;15950;51.112;6.966;2022-12-07T19:41:12;6.03;89.40
26721;HTU21D;15950;51.112;6.966;2022-12-07T19:47:09;5.71;89.76
26721;HTU21D;15950;51.112;6.966;2022-12-07T19:50:09;5.60;89.89
26721;HTU21D;15950;51.112;6.966;2022-12-07T19:53:09;5.84;89.56
26721;HTU21D;15950;51.112;6.966;2022-12-07T19:56:17;5.92;89.18
26721;HTU21D;15950;51.112;6.966;2022-12-07T19:59:09;5.90;88.92
26721;HTU21D;15950;51.112;6.966;2022-12-07T20:02:15;5.89;88.86
26721;HTU21D;15950;51.112;6.966;2022-12-07T20:05:09;5.79;89.15
26721;HTU21D;15950;51.112;6.966;2022-12-07T20:08:09;6.03;88.71
26721;HTU21D;15950;51.112;6.966;2022-12-07T20:11:09;5.76;89.09
26721;HTU21D;15950;51.112;6.966;2022-12-07T20:14:10;5.94;88.92
26721;HTU21D;15950;51.112;6.966;2022-12-07T20:17:09;5.64;88.91
26721;HTU21D;15950;51.112;6.966;2022-12-07T20:20:09;5.69;89.57
26721;HTU21D;15950;51.112;6.966;2022-12-07T20:23:08;5.97;88.61
26721;HTU21D;15950;51.112;6.966;2022-12-07T20:26:11;5.90;88.02
26721;HTU21D;15950;51.112;6.966;2022-12-07T20:29:11;5.93;88.05
26721;HTU21D;15950;51.112;6.966;2022-12-07T20:32:11;5.67;88.53
26721;HTU21D;15950;51.112;6.966;2022-12-07T20:35:08;5.55;88.80
26721;HTU21D;15950;51.112;6.966;2022-12-07T20:38:10;5.79;88.88
26721;HTU21D;15950;51.112;6.966;2022-12-07T20:41:10;5.47;89.02
26721;HTU21D;15950;51.112;6.966;2022-12-07T20:44:08;5.78;89.06
26721;HTU21D;15950;51.112;6.966;2022-12-07T20:47:09;5.55;88.69
26721;HTU21D;15950;51.112;6.966;2022-12-07T20:50:09;5.74;88.89
26721;HTU21D;15950;51.112;6.966;2022-12-07T20:53:09;5.87;88.42
26721;HTU21D;15950;51.112;6.966;2022-12-07T20:56:17;5.87;88.10
26721;HTU21D;15950;51.112;6.966;2022-12-07T20:59:12;6.06;87.44
26721;HTU21D;15950;51.112;6.966;2022-12-07T21:02:11;5.86;88.00
26721;HTU21D;15950;51.112;6.966;2022-12-07T21:05:09;5.51;88.75
26721;HTU21D;15950;51.112;6.966;2022-12-07T21:08:08;5.67;89.15
26721;HTU21D;15950;51.112;6.966;2022-12-07T21:11:10;5.60;89.02
26721;HTU21D;15950;51.112;6.966;2022-12-07T21:14:08;5.43;89.15
26721;HTU21D;15950;51.112;6.966;2022-12-07T21:17:09;5.57;89.16
26721;HTU21D;15950;51.112;6.966;2022-12-07T21:20:09;5.69;88.60
26721;HTU21D;15950;51.112;6.966;2022-12-07T21:23:08;5.76;88.25
26721;HTU21D;15950;51.112;6.966;2022-12-07T21:26:13;5.55;88.41
26721;HTU21D;15950;51.112;6.966;2022-12-07T21:29:08;5.62;88.57
26721;HTU21D;15950;51.112;6.966;2022-12-07T21:32:09;5.84;88.06
26721;HTU21D;15950;51.112;6.966;2022-12-07T21:35:09;5.59;87.83
26721;HTU21D;15950;51.112;6.966;2022-12-07T21:38:08;5.60;88.22
26721;HTU21D;15950;51.112;6.966;2022-12-07T21:41:32;5.58;88.18
26721;HTU21D;15950;51.112;6.966;2022-12-07T21:44:09;5.72;88.18
26721;HTU21D;15950;51.112;6.966;2022-12-07T21:47:08;5.53;88.50
26721;HTU21D;15950;51.112;6.966;2022-12-07T21:50:09;5.42;89.47
26721;HTU21D;15950;51.112;6.966;2022-12-07T21:53:08;5.59;89.41
26721;HTU21D;15950;51.112;6.966;2022-12-07T21:59:14;5.57;89.10
26721;HTU21D;15950;51.112;6.966;2022-12-07T22:02:13;5.68;88.55
26721;HTU21D;15950;51.112;6.966;2022-12-07T22:05:08;5.81;88.41
26721;HTU21D;15950;51.112;6.966;2022-12-07T22:08:08;5.52;88.25
26721;HTU21D;15950;51.112;6.966;2022-12-07T22:11:09;5.38;89.39
26721;HTU21D;15950;51.112;6.966;2022-12-07T22:14:09;5.47;89.34
26721;HTU21D;15950;51.112;6.966;2022-12-07T22:17:08;5.45;89.25
26721;HTU21D;15950;51.112;6.966;2022-12-07T22:20:10;5.34;89.59
26721;HTU21D;15950;51.112;6.966;2022-12-07T22:23:08;5.44;89.51
26721;HTU21D;15950;51.112;6.966;2022-12-07T22:26:10;5.51;89.24
26721;HTU21D;15950;51.112;6.966;2022-12-07T22:29:09;5.60;89.06
26721;HTU21D;15950;51.112;6.966;2022-12-07T22:32:08;5.64;88.67
26721;HTU21D;15950;51.112;6.966;2022-12-07T22:35:08;5.24;89.54
26721;HTU21D;15950;51.112;6.966;2022-12-07T22:38:08;5.42;89.72
26721;HTU21D;15950;51.112;6.966;2022-12-07T22:41:31;5.41;90.02